Minot, ND (58701)

9:00 AM CST on February 23, 2017 (GMT -0600)
Edgeview Estates | | Change Station

Elev 1752 ft 48.21 °N, 101.33 °W | Updated 2 seconds ago

Overcast
Overcast
22.7 °F
Feels Like 11 °F
N
13.0
Wind Variable Wind from SSW
Gusts 17.0 mph

Today
High -- | Low -- °F
--% Chance of Precip.
Yesterday
High -- | Low -- °F
Precip. -- in
Pressure 30.12 in
Visibility 10.0 miles
Clouds Few 1100 ft
Overcast 1700 ft
Windchill 11 °F
Dew Point 18 °F
Humidity 81%
Rainfall 0.00 in
Snow Depth Not available.
7:37 AM 6:20 PM
Waning Crescent, 10% visible
METAR KMOT 231454Z 36016KT 10SM FEW011 OVC017 M04/M08 A3005 RMK AO2 SNB04E17 SLP200 P0000 60000 T10441078 51008
Pressure 30.12 in
Visibility 10.0 miles
Clouds Few 1100 ft
Overcast 1700 ft
Windchill 11 °F
Dew Point 18 °F
Humidity 81%
Rainfall 0.00 in
Snow Depth Not available.
7:37 AM 6:20 PM
Waning Crescent, 10% visible
METAR KMOT 231454Z 36016KT 10SM FEW011 OVC017 M04/M08 A3005 RMK AO2 SNB04E17 SLP200 P0000 60000 T10441078 51008

Get Your Daily Forecast Email!

Thanks for signing up!

Be on the lookout for a verification email in your inbox.

You'll start receiving the daily forecast at 8 AM.

×

10-Day Weather Forecast

Almanac

Astronomy

Feb. 23, 2017 Rise Set
Actual Time
Civil Twilight
Nautical Twilight
Astronomical Twilight
Moon
Length of Visible Light
Length of Day
Tomorrow will be .
, % of the Moon is Illuminated

Today's Extremes

State Highs State Lows

Community

WunderPhotos

Upload Photos

1,962,540 photos uploaded!

WunderBlog® & News

Nearby

Air Quality

  Air Quality AQ Index Pollutant
Not available.

Snow Depth

Station Depth Elevation

Earthquake Activity

City Distance Mag. Time & Date
Minimum magnitude displayed is 2.5.

Coastal Water Temperatures

Place Temperature

Stations

Nearby Weather Stations

Station Location Temp. Windchill Dew Point Humidity Wind Precip. Elev Updated Type
                   

Watches & Warnings

There are currently no watches in effect.